サンクトペテルブルク の空港の天気 - METARとTAF

プルコヴォ空港(サンクトペテルブルグ) ( ULLI / LED ) - ロシア サンクトペテルブルク
飛行場実況気象(Metar)
観測時間05/22 01:00 MSK (05/21 22:00 UTC)
風向・風速静穏 0m/s
視程10km以上
天気現象
なし
気温11℃
湿度71%
気圧1027hPa
METARULLI 212200Z 00000MPS CAVOK 11/06 Q1027 R28L/090060 NOSIG
過去の天気等 Google飛行場航空写真 Wunderground天気予報

過去48時間のMETAR

飛行場予報(TAF)
発表時間: 5/21 22:58 MSK (5/21 19:58 UTC)
予報対象時間: 22日0時 MSK ~ 23日0時 MSK
風向・風速南 2m/s
視程10km以上
なし
22日3時 MSK ~ 22日8時 MSK に一時的に
視程4,000m
天気現象もや
22日15時 MSK ~ 22日17時 MSK に徐々に
全天の4割程度の雲 雲底高度 910m
TAF ULLI 211958Z 2121/2221 17002MPS CAVOK
TEMPO 2200/2205 4000 BR
BECMG 2212/2214 SCT030